Terminal Aerodrome Forecast
Issued by NWS

Current Version | Previous Version | Text Only | Print | Product List | Glossary On
Versions: 1 2 3 4 5 6 7 8 9 10 11 12
061
FTUS42 KMLB 271720
TAFISM
TAF
KISM 271720Z 2718/2818 VRB04KT P6SM SKC
     FM272000 12008KT P6SM SCT045
     FM280200 13003KT P6SM SKC=

USA.gov is the U.S. government's official web portal to all federal, state and local government web resources and services.